Time;durP1;ratioP1;P1;durP2;ratioP2;P2;SDS_P1;SDS_P2;PMS_P1;PMS_P2;Temp;Humidity;BMP_temperature;BMP_pressure;BME280_temperature;BME280_humidity;BME280_pressure;Samples;Min_cycle;Max_cycle;Signal;HPM_P1;HPM_P2
2022/12/13 00:00:41;;;;;;;9.20;3.90;;;;;;;;;;4996344;28;20032;-79
2022/12/13 00:03:07;;;;;;;9.23;3.97;;;;;;;;;;4996563;28;20065;-79
2022/12/13 00:05:33;;;;;;;8.60;4.00;;;;;;;;;;5014111;28;20038;-79
2022/12/13 00:08:00;;;;;;;9.27;3.90;;;;;;;;;;5014957;28;20040;-80
2022/12/13 00:10:26;;;;;;;9.98;4.38;;;;;;;;;;5013692;28;20105;-79
2022/12/13 00:12:51;;;;;;;8.70;4.35;;;;;;;;;;5013893;28;20030;-79
2022/12/13 00:15:17;;;;;;;10.05;3.90;;;;;;;;;;5013099;28;20042;-80
2022/12/13 00:17:44;;;;;;;7.57;3.72;;;;;;;;;;5014155;28;20042;-79
2022/12/13 00:20:10;;;;;;;8.52;4.03;;;;;;;;;;5014407;28;20029;-80
2022/12/13 00:22:35;;;;;;;12.32;3.60;;;;;;;;;;5014451;28;20026;-79
2022/12/13 00:25:01;;;;;;;12.85;5.47;;;;;;;;;;5015312;28;20033;-80
2022/12/13 00:27:26;;;;;;;18.95;7.03;;;;;;;;;;5014333;28;20372;-79
2022/12/13 00:29:52;;;;;;;18.15;6.57;;;;;;;;;;5016282;28;20042;-79
2022/12/13 00:32:17;;;;;;;7.93;3.90;;;;;;;;;;5016036;28;20045;-80
2022/12/13 00:34:43;;;;;;;10.50;4.28;;;;;;;;;;4995792;28;20360;-80
2022/12/13 00:37:08;;;;;;;10.45;3.95;;;;;;;;;;4995999;28;20513;-80
2022/12/13 00:39:34;;;;;;;8.90;3.90;;;;;;;;;;5011555;28;20041;-80
2022/12/13 00:41:59;;;;;;;7.72;3.58;;;;;;;;;;4996127;28;20033;-81
2022/12/13 00:44:25;;;;;;;8.70;3.80;;;;;;;;;;5011546;28;20068;-80
2022/12/13 00:46:52;;;;;;;6.93;3.35;;;;;;;;;;5012032;28;20056;-80
2022/12/13 00:49:17;;;;;;;7.07;2.85;;;;;;;;;;5013535;28;20041;-80
2022/12/13 00:51:43;;;;;;;6.43;3.38;;;;;;;;;;5013771;28;20574;-80
2022/12/13 00:54:09;;;;;;;7.05;3.88;;;;;;;;;;5013242;28;20037;-80
2022/12/13 00:56:36;;;;;;;7.97;3.47;;;;;;;;;;4996298;28;20037;-80
2022/12/13 00:59:03;;;;;;;8.52;3.58;;;;;;;;;;5014534;28;20042;-80
2022/12/13 01:01:31;;;;;;;8.35;3.78;;;;;;;;;;4996029;28;20034;-81
2022/12/13 01:03:59;;;;;;;8.10;4.35;;;;;;;;;;5012583;28;20052;-80
2022/12/13 01:06:45;;;;;;;8.07;4.20;;;;;;;;;;5016981;28;20068;-79
2022/12/13 01:09:16;;;;;;;12.93;5.03;;;;;;;;;;5017282;28;20045;-78
2022/12/13 01:11:42;;;;;;;14.70;5.57;;;;;;;;;;5016550;28;20033;-79
2022/12/13 01:14:08;;;;;;;12.20;4.97;;;;;;;;;;5016579;28;20033;-79
2022/12/13 01:16:33;;;;;;;10.50;3.80;;;;;;;;;;4998238;28;20529;-79
2022/12/13 01:18:59;;;;;;;9.52;4.40;;;;;;;;;;5018838;28;20038;-78
2022/12/13 01:21:24;;;;;;;8.98;4.50;;;;;;;;;;5019570;28;20042;-78
2022/12/13 01:23:50;;;;;;;7.45;3.63;;;;;;;;;;5019371;28;20042;-79
2022/12/13 01:26:19;;;;;;;10.60;4.05;;;;;;;;;;5019503;28;20038;-78
2022/12/13 01:28:44;;;;;;;10.75;4.15;;;;;;;;;;5019806;28;20048;-78
2022/12/13 01:31:12;;;;;;;6.88;3.33;;;;;;;;;;5019670;28;20033;-78
2022/12/13 01:33:38;;;;;;;10.18;4.10;;;;;;;;;;5019895;28;20133;-79
2022/12/13 01:36:06;;;;;;;8.18;4.00;;;;;;;;;;5018915;28;20113;-80
2022/12/13 01:38:33;;;;;;;10.02;3.50;;;;;;;;;;5000866;28;20030;-79
2022/12/13 01:40:59;;;;;;;5.82;2.90;;;;;;;;;;5001447;28;20049;-78
2022/12/13 01:43:45;;;;;;;6.65;3.00;;;;;;;;;;5018963;28;20037;-78
2022/12/13 01:46:12;;;;;;;6.60;2.88;;;;;;;;;;4990567;28;20050;-78
2022/12/13 01:48:49;;;;;;;6.18;2.80;;;;;;;;;;5017598;28;20030;-80
2022/12/13 01:51:17;;;;;;;6.32;3.03;;;;;;;;;;5018762;28;20092;-80
2022/12/13 01:53:46;;;;;;;7.53;3.38;;;;;;;;;;5018915;28;20479;-79
2022/12/13 01:56:18;;;;;;;6.40;3.33;;;;;;;;;;5016343;28;20482;-78
2022/12/13 01:58:48;;;;;;;5.13;2.75;;;;;;;;;;5017402;28;20042;-78
2022/12/13 02:01:14;;;;;;;8.32;3.30;;;;;;;;;;5000688;28;20037;-79
2022/12/13 02:03:39;;;;;;;5.78;3.00;;;;;;;;;;5000447;28;20536;-78
2022/12/13 02:06:11;;;;;;;6.68;3.13;;;;;;;;;;5017265;28;20026;-80
2022/12/13 02:08:39;;;;;;;5.97;2.90;;;;;;;;;;5017891;28;20048;-79
2022/12/13 02:11:05;;;;;;;4.70;2.55;;;;;;;;;;5018059;28;20309;-78
2022/12/13 02:13:33;;;;;;;5.43;2.58;;;;;;;;;;5018197;28;20109;-80
2022/12/13 02:16:22;;;;;;;6.93;2.90;;;;;;;;;;5016943;28;20126;-80
2022/12/13 02:19:11;;;;;;;6.63;2.80;;;;;;;;;;5016550;28;20514;-79
2022/12/13 02:21:50;;;;;;;6.60;2.47;;;;;;;;;;5016066;28;20041;-78
2022/12/13 02:24:41;;;;;;;7.43;2.42;;;;;;;;;;5016625;28;20045;-78
2022/12/13 02:27:21;;;;;;;4.90;2.38;;;;;;;;;;5054472;23;20049;-83
2022/12/13 02:30:23;;;;;;;4.90;2.28;;;;;;;;;;5023560;28;20509;-81
2022/12/13 02:33:23;;;;;;;4.97;2.75;;;;;;;;;;5038719;28;20041;-80
2022/12/13 02:36:07;;;;;;;8.00;2.85;;;;;;;;;;5036563;28;20033;-79
2022/12/13 02:38:52;;;;;;;4.88;2.50;;;;;;;;;;5044285;28;20132;-82
2022/12/13 02:41:22;;;;;;;5.55;2.28;;;;;;;;;;5044897;28;20053;-82
2022/12/13 02:43:56;;;;;;;6.05;2.95;;;;;;;;;;5044302;28;20033;-83
2022/12/13 02:46:25;;;;;;;5.45;2.47;;;;;;;;;;5043902;28;20030;-83
2022/12/13 02:48:55;;;;;;;5.68;2.50;;;;;;;;;;5045661;28;20044;-82
2022/12/13 02:51:21;;;;;;;7.00;2.72;;;;;;;;;;5026158;28;20486;-81
2022/12/13 02:53:47;;;;;;;4.63;2.20;;;;;;;;;;5044419;28;20041;-82
2022/12/13 02:56:13;;;;;;;5.68;2.63;;;;;;;;;;5043842;28;20052;-81
2022/12/13 02:58:43;;;;;;;4.75;2.67;;;;;;;;;;5042653;28;20067;-80
2022/12/13 03:01:38;;;;;;;7.10;3.05;;;;;;;;;;5041851;28;20043;-81
2022/12/13 03:04:15;;;;;;;5.25;2.45;;;;;;;;;;5041272;28;20052;-81
2022/12/13 03:07:05;;;;;;;6.00;2.20;;;;;;;;;;5040687;28;20033;-80
2022/12/13 03:10:01;;;;;;;4.50;2.55;;;;;;;;;;5040590;28;20108;-81
2022/12/13 03:15:37;;;;;;;3.50;2.00;;;;;;;;;;5042649;28;20106;-81
2022/12/13 03:18:16;;;;;;;6.25;2.10;;;;;;;;;;5024771;28;20045;-82
2022/12/13 03:20:51;;;;;;;3.92;2.17;;;;;;;;;;5043271;28;20037;-81
2022/12/13 03:23:18;;;;;;;6.43;2.60;;;;;;;;;;5024126;28;20091;-82
2022/12/13 03:25:46;;;;;;;5.55;2.67;;;;;;;;;;5026020;28;20397;-80
2022/12/13 03:28:12;;;;;;;4.95;2.40;;;;;;;;;;5043094;28;20037;-81
2022/12/13 03:30:37;;;;;;;5.05;2.67;;;;;;;;;;5043767;28;20057;-80
2022/12/13 03:33:03;;;;;;;9.40;2.78;;;;;;;;;;5041909;28;20034;-81
2022/12/13 03:35:30;;;;;;;4.53;2.63;;;;;;;;;;5040976;28;20034;-81
2022/12/13 03:37:55;;;;;;;5.72;2.80;;;;;;;;;;5040257;28;20040;-81
2022/12/13 03:40:21;;;;;;;8.15;3.10;;;;;;;;;;5039475;28;20033;-81
2022/12/13 03:42:47;;;;;;;11.80;3.83;;;;;;;;;;5022213;28;20033;-81
2022/12/13 03:45:12;;;;;;;5.30;2.80;;;;;;;;;;5020916;28;20520;-81
2022/12/13 03:47:38;;;;;;;12.18;3.83;;;;;;;;;;5038372;28;20083;-80
2022/12/13 03:50:04;;;;;;;11.68;3.40;;;;;;;;;;5037110;28;20108;-81
2022/12/13 03:52:30;;;;;;;7.47;2.83;;;;;;;;;;5036774;28;20496;-80
2022/12/13 03:54:56;;;;;;;7.78;3.03;;;;;;;;;;5016750;28;20041;-80
2022/12/13 03:57:21;;;;;;;8.38;3.45;;;;;;;;;;5018432;28;20124;-80
2022/12/13 03:59:46;;;;;;;7.43;3.10;;;;;;;;;;5026962;28;20040;-81
2022/12/13 04:02:12;;;;;;;4.85;2.40;;;;;;;;;;5041938;28;20044;-81
2022/12/13 04:04:38;;;;;;;5.75;2.78;;;;;;;;;;5040759;28;20091;-82
2022/12/13 04:07:03;;;;;;;6.78;2.63;;;;;;;;;;5040974;28;20052;-81
2022/12/13 04:09:29;;;;;;;4.65;2.05;;;;;;;;;;5023181;28;20453;-81
2022/12/13 04:14:38;;;;;;;10.93;2.88;;;;;;;;;;5038677;28;20041;-81
2022/12/13 04:17:03;;;;;;;8.85;3.00;;;;;;;;;;5038640;28;20038;-81
2022/12/13 04:19:29;;;;;;;6.80;2.80;;;;;;;;;;5027329;28;20102;-80
2022/12/13 04:21:54;;;;;;;5.95;2.45;;;;;;;;;;5042073;28;20037;-82
2022/12/13 04:24:24;;;;;;;4.65;2.30;;;;;;;;;;5023637;28;20053;-82
2022/12/13 04:26:49;;;;;;;4.88;2.22;;;;;;;;;;5040959;28;20064;-81
2022/12/13 04:29:15;;;;;;;8.38;2.80;;;;;;;;;;5041246;28;20067;-80
2022/12/13 04:31:41;;;;;;;2.78;1.73;;;;;;;;;;5024289;28;20048;-82
2022/12/13 04:34:06;;;;;;;3.58;2.03;;;;;;;;;;5041321;28;20033;-80
2022/12/13 04:36:32;;;;;;;7.32;2.80;;;;;;;;;;5024284;28;20040;-81
2022/12/13 04:38:57;;;;;;;5.55;2.28;;;;;;;;;;5023931;28;20033;-80
2022/12/13 04:41:23;;;;;;;9.20;2.60;;;;;;;;;;5023609;28;20041;-82
2022/12/13 04:43:53;;;;;;;5.55;2.22;;;;;;;;;;5025373;28;20033;-79
2022/12/13 04:46:19;;;;;;;5.25;2.50;;;;;;;;;;5025181;28;20056;-78
2022/12/13 04:48:45;;;;;;;5.35;2.00;;;;;;;;;;5026164;28;20037;-80
2022/12/13 04:51:11;;;;;;;5.13;2.22;;;;;;;;;;5026766;28;20033;-80
2022/12/13 04:53:36;;;;;;;4.65;2.60;;;;;;;;;;5047931;28;20037;-80
2022/12/13 04:56:03;;;;;;;5.15;2.63;;;;;;;;;;5047089;28;20116;-80
2022/12/13 04:58:29;;;;;;;7.10;3.22;;;;;;;;;;5047744;28;20056;-79
2022/12/13 05:00:55;;;;;;;7.57;2.50;;;;;;;;;;5031111;28;20446;-79
2022/12/13 05:03:21;;;;;;;5.95;2.13;;;;;;;;;;5047333;28;20048;-79
2022/12/13 05:05:47;;;;;;;5.47;2.30;;;;;;;;;;5046959;28;20494;-80
2022/12/13 05:08:12;;;;;;;4.32;2.28;;;;;;;;;;5042512;28;20044;-81
2022/12/13 05:10:38;;;;;;;4.57;2.17;;;;;;;;;;5023449;28;20433;-80
2022/12/13 05:13:04;;;;;;;11.68;4.28;;;;;;;;;;5023527;28;20053;-79
2022/12/13 05:15:29;;;;;;;3.25;2.05;;;;;;;;;;5039153;28;20029;-81
2022/12/13 05:17:59;;;;;;;9.35;3.97;;;;;;;;;;5021724;28;20501;-78
2022/12/13 05:20:24;;;;;;;9.98;3.10;;;;;;;;;;5016174;28;20075;-80
2022/12/13 05:22:50;;;;;;;19.60;6.50;;;;;;;;;;5042064;28;20053;-81
2022/12/13 05:25:15;;;;;;;19.67;7.75;;;;;;;;;;5040396;28;20033;-79
2022/12/13 05:27:41;;;;;;;6.35;2.90;;;;;;;;;;5049248;28;20397;-81
2022/12/13 05:30:07;;;;;;;25.20;10.05;;;;;;;;;;5045101;28;20474;-81
2022/12/13 05:32:37;;;;;;;8.80;3.30;;;;;;;;;;5045203;28;20037;-80
2022/12/13 05:35:03;;;;;;;7.35;2.25;;;;;;;;;;5043852;28;20070;-80
2022/12/13 05:37:28;;;;;;;5.57;2.78;;;;;;;;;;5026772;28;20413;-80
2022/12/13 05:39:54;;;;;;;6.75;3.10;;;;;;;;;;5045358;28;20037;-81
2022/12/13 05:42:19;;;;;;;7.35;3.42;;;;;;;;;;5046025;28;20478;-81
2022/12/13 05:44:45;;;;;;;8.45;3.67;;;;;;;;;;5029708;28;20073;-80
2022/12/13 05:47:11;;;;;;;17.52;8.40;;;;;;;;;;5010910;28;20038;-81
2022/12/13 05:49:36;;;;;;;10.90;5.68;;;;;;;;;;5044286;28;20029;-80
2022/12/13 05:52:02;;;;;;;32.58;13.27;;;;;;;;;;5044072;28;20030;-81
2022/12/13 05:54:27;;;;;;;7.80;4.18;;;;;;;;;;5044462;28;20426;-82
2022/12/13 05:56:53;;;;;;;27.02;8.55;;;;;;;;;;5044933;28;20093;-79
2022/12/13 05:59:18;;;;;;;20.55;6.85;;;;;;;;;;5027617;28;20037;-81
2022/12/13 06:01:44;;;;;;;18.25;5.50;;;;;;;;;;5045274;28;20013;-80
2022/12/13 06:04:10;;;;;;;8.90;4.07;;;;;;;;;;5045080;28;20025;-79
2022/12/13 06:06:36;;;;;;;13.68;5.20;;;;;;;;;;5011369;28;20033;-80
2022/12/13 06:09:02;;;;;;;17.60;5.85;;;;;;;;;;5028145;28;20037;-80
2022/12/13 06:11:28;;;;;;;21.00;7.63;;;;;;;;;;5045694;28;20489;-81
2022/12/13 06:13:53;;;;;;;32.30;9.48;;;;;;;;;;5045147;28;20041;-81
2022/12/13 06:16:19;;;;;;;95.40;31.02;;;;;;;;;;5027138;28;20092;-80
2022/12/13 06:18:44;;;;;;;31.50;8.98;;;;;;;;;;5045233;28;20041;-81
2022/12/13 06:21:10;;;;;;;12.75;4.97;;;;;;;;;;5045144;28;20037;-79
2022/12/13 06:23:35;;;;;;;8.82;3.30;;;;;;;;;;5044172;28;20104;-78
2022/12/13 06:26:03;;;;;;;9.52;5.00;;;;;;;;;;5041033;28;20038;-80
2022/12/13 06:28:28;;;;;;;30.38;10.65;;;;;;;;;;5042124;28;20482;-81
2022/12/13 06:30:54;;;;;;;23.05;7.35;;;;;;;;;;5041390;28;20030;-78
2022/12/13 06:33:19;;;;;;;20.92;5.80;;;;;;;;;;5025013;28;20049;-80
2022/12/13 06:35:45;;;;;;;14.93;5.25;;;;;;;;;;5042933;28;20037;-80
2022/12/13 06:38:12;;;;;;;24.15;10.07;;;;;;;;;;5019360;28;20041;-78
2022/12/13 06:40:38;;;;;;;30.00;11.73;;;;;;;;;;5032273;28;20060;-80
2022/12/13 06:43:03;;;;;;;77.80;23.65;;;;;;;;;;5044391;28;20034;-80
2022/12/13 06:45:29;;;;;;;56.45;17.70;;;;;;;;;;5042847;28;20041;-81
2022/12/13 06:47:55;;;;;;;58.53;20.17;;;;;;;;;;5043018;28;20107;-81
2022/12/13 06:50:21;;;;;;;42.90;14.02;;;;;;;;;;5025726;28;20113;-81
2022/12/13 06:52:46;;;;;;;30.77;11.52;;;;;;;;;;5024106;28;20064;-80
2022/12/13 06:55:12;;;;;;;56.47;20.15;;;;;;;;;;5042588;28;20470;-81
2022/12/13 06:57:38;;;;;;;63.15;19.38;;;;;;;;;;5024299;28;20029;-80
2022/12/13 07:00:04;;;;;;;33.00;12.68;;;;;;;;;;5025474;28;20512;-81
2022/12/13 07:02:30;;;;;;;23.42;8.30;;;;;;;;;;5041916;28;20029;-80
2022/12/13 07:04:55;;;;;;;31.38;8.43;;;;;;;;;;5023419;28;20099;-81
2022/12/13 07:07:22;;;;;;;29.90;8.63;;;;;;;;;;5040996;28;20045;-80
2022/12/13 07:09:47;;;;;;;26.13;7.85;;;;;;;;;;5041850;28;20040;-81
2022/12/13 07:12:13;;;;;;;30.30;8.55;;;;;;;;;;5041680;28;20037;-80
2022/12/13 07:14:38;;;;;;;21.30;6.85;;;;;;;;;;5040520;28;20030;-81
2022/12/13 07:17:04;;;;;;;20.50;6.03;;;;;;;;;;5022828;28;20037;-81
2022/12/13 07:19:30;;;;;;;19.42;6.40;;;;;;;;;;5041501;28;20045;-80
2022/12/13 07:21:56;;;;;;;19.58;6.70;;;;;;;;;;5040656;28;20037;-80
2022/12/13 07:24:22;;;;;;;16.08;6.40;;;;;;;;;;5023521;28;20068;-81
2022/12/13 07:26:47;;;;;;;18.55;6.55;;;;;;;;;;5023524;28;20068;-81
2022/12/13 07:29:12;;;;;;;18.88;5.90;;;;;;;;;;5042811;28;20045;-81
2022/12/13 07:31:38;;;;;;;16.70;5.38;;;;;;;;;;5039271;28;20499;-82
2022/12/13 07:34:03;;;;;;;12.15;4.50;;;;;;;;;;5021866;28;20101;-80
2022/12/13 07:36:29;;;;;;;13.57;5.10;;;;;;;;;;5039749;28;20037;-83
2022/12/13 07:38:56;;;;;;;14.10;4.82;;;;;;;;;;5039316;28;20034;-80
2022/12/13 07:41:23;;;;;;;12.02;5.13;;;;;;;;;;5045822;28;20045;-81
2022/12/13 07:43:48;;;;;;;22.10;5.72;;;;;;;;;;5042383;28;20088;-79
2022/12/13 07:46:14;;;;;;;12.77;5.22;;;;;;;;;;5022940;28;20067;-82
2022/12/13 07:48:40;;;;;;;14.90;5.10;;;;;;;;;;5022577;28;20037;-81
2022/12/13 07:51:09;;;;;;;18.40;6.30;;;;;;;;;;5041395;28;20038;-81
2022/12/13 07:53:35;;;;;;;18.17;6.60;;;;;;;;;;5037753;28;20159;-81
2022/12/13 07:56:02;;;;;;;16.60;6.35;;;;;;;;;;5036883;28;20060;-81
2022/12/13 07:58:29;;;;;;;20.05;5.13;;;;;;;;;;5017219;28;20030;-80
2022/12/13 08:01:07;;;;;;;17.60;6.18;;;;;;;;;;5039971;28;20064;-80
2022/12/13 08:03:34;;;;;;;12.85;4.93;;;;;;;;;;5024792;28;20037;-82
2022/12/13 08:06:04;;;;;;;15.32;5.45;;;;;;;;;;5025105;28;20474;-82
2022/12/13 08:08:30;;;;;;;15.27;5.85;;;;;;;;;;5043633;28;20044;-81
2022/12/13 08:11:00;;;;;;;16.30;4.90;;;;;;;;;;5037698;28;20030;-82
2022/12/13 08:13:25;;;;;;;15.20;5.78;;;;;;;;;;5022810;28;20041;-80
2022/12/13 08:15:56;;;;;;;22.83;9.32;;;;;;;;;;5005568;28;20041;-82
2022/12/13 08:18:22;;;;;;;17.80;7.95;;;;;;;;;;5041553;28;20532;-82
2022/12/13 08:20:47;;;;;;;17.48;7.70;;;;;;;;;;5023280;28;20120;-82
2022/12/13 08:23:13;;;;;;;19.48;8.90;;;;;;;;;;5039204;28;20048;-82
2022/12/13 08:25:38;;;;;;;18.60;7.85;;;;;;;;;;5042922;28;20037;-82
2022/12/13 08:28:04;;;;;;;18.88;9.43;;;;;;;;;;5018608;23;20056;-81
2022/12/13 08:30:31;;;;;;;15.32;5.80;;;;;;;;;;5004131;28;20044;-82
2022/12/13 08:32:56;;;;;;;16.33;5.70;;;;;;;;;;5004599;28;20038;-81
2022/12/13 08:35:22;;;;;;;21.05;6.28;;;;;;;;;;5021662;28;20030;-82
2022/12/13 08:37:48;;;;;;;15.27;5.80;;;;;;;;;;5022099;28;20116;-82
2022/12/13 08:40:14;;;;;;;17.75;6.00;;;;;;;;;;5022718;28;20483;-83
2022/12/13 08:42:39;;;;;;;20.67;6.57;;;;;;;;;;5021913;28;20061;-81
2022/12/13 08:45:07;;;;;;;9.05;4.72;;;;;;;;;;5019556;28;20100;-82
2022/12/13 08:47:33;;;;;;;14.20;5.30;;;;;;;;;;5016764;28;20038;-80
2022/12/13 08:49:58;;;;;;;12.25;5.65;;;;;;;;;;5018872;28;20049;-82
2022/12/13 08:52:23;;;;;;;23.77;9.02;;;;;;;;;;5019565;28;20038;-80
2022/12/13 08:54:49;;;;;;;9.45;4.72;;;;;;;;;;5019319;28;20038;-82
2022/12/13 08:57:15;;;;;;;15.35;5.90;;;;;;;;;;5019674;28;20084;-82
2022/12/13 08:59:41;;;;;;;10.23;4.57;;;;;;;;;;5017303;28;20045;-81
2022/12/13 09:02:12;;;;;;;9.25;4.40;;;;;;;;;;4985387;28;20058;-82
2022/12/13 09:04:37;;;;;;;10.38;5.43;;;;;;;;;;5017898;28;20383;-82
2022/12/13 09:07:03;;;;;;;10.38;5.50;;;;;;;;;;5017467;28;20033;-81
2022/12/13 09:09:28;;;;;;;12.43;4.55;;;;;;;;;;5018353;28;20542;-81
2022/12/13 09:11:54;;;;;;;9.32;3.90;;;;;;;;;;5019147;28;20037;-79
2022/12/13 09:14:19;;;;;;;6.82;3.63;;;;;;;;;;5017873;28;20038;-81
2022/12/13 09:16:46;;;;;;;6.38;3.58;;;;;;;;;;5022148;28;20516;-82
2022/12/13 09:19:11;;;;;;;11.48;5.70;;;;;;;;;;5024454;28;20041;-81
2022/12/13 09:21:37;;;;;;;11.45;5.40;;;;;;;;;;5023261;28;20052;-80
2022/12/13 09:24:02;;;;;;;33.13;10.88;;;;;;;;;;5022972;28;20034;-82
2022/12/13 09:26:28;;;;;;;22.33;9.02;;;;;;;;;;5021848;28;20410;-81
2022/12/13 09:28:53;;;;;;;20.42;8.45;;;;;;;;;;5023607;28;20041;-83
2022/12/13 09:31:19;;;;;;;21.70;8.30;;;;;;;;;;5022613;28;20418;-82
2022/12/13 09:33:45;;;;;;;20.08;9.00;;;;;;;;;;5023698;28;20042;-81
2022/12/13 09:36:17;;;;;;;18.67;7.85;;;;;;;;;;5022609;28;20041;-81
2022/12/13 09:38:43;;;;;;;17.42;7.68;;;;;;;;;;5025718;28;20117;-82
2022/12/13 09:41:18;;;;;;;16.00;6.95;;;;;;;;;;5026653;28;20402;-81
2022/12/13 09:43:48;;;;;;;15.90;7.00;;;;;;;;;;5026772;28;20065;-82
2022/12/13 09:46:35;;;;;;;17.80;6.88;;;;;;;;;;5025502;28;20049;-82
2022/12/13 09:49:03;;;;;;;11.98;5.55;;;;;;;;;;5027320;28;20064;-82
2022/12/13 09:51:32;;;;;;;17.00;6.40;;;;;;;;;;5025114;28;20033;-82
2022/12/13 09:53:59;;;;;;;16.45;7.38;;;;;;;;;;5025646;28;20475;-80
2022/12/13 09:56:24;;;;;;;24.20;10.98;;;;;;;;;;5027661;28;20048;-80
2022/12/13 09:58:52;;;;;;;24.48;10.40;;;;;;;;;;5026197;28;20065;-81
2022/12/13 10:01:19;;;;;;;18.65;9.35;;;;;;;;;;5025849;28;20052;-82
2022/12/13 10:03:48;;;;;;;15.82;7.93;;;;;;;;;;5007504;28;20158;-82
2022/12/13 10:06:22;;;;;;;16.70;7.32;;;;;;;;;;5025648;28;20053;-82
2022/12/13 10:08:51;;;;;;;19.10;8.52;;;;;;;;;;5026715;28;20077;-82
2022/12/13 10:11:18;;;;;;;29.45;11.95;;;;;;;;;;5010201;28;20109;-82
2022/12/13 10:13:56;;;;;;;22.80;9.80;;;;;;;;;;5025939;28;20062;-82
2022/12/13 10:16:37;;;;;;;23.85;11.27;;;;;;;;;;5025092;28;20093;-82
2022/12/13 10:19:15;;;;;;;22.55;7.68;;;;;;;;;;5025881;28;20068;-82
2022/12/13 10:21:43;;;;;;;18.33;6.95;;;;;;;;;;5027564;28;20030;-82
2022/12/13 10:24:29;;;;;;;17.92;9.35;;;;;;;;;;5026528;28;20034;-82
2022/12/13 10:27:13;;;;;;;16.88;7.03;;;;;;;;;;5026250;28;20034;-81
2022/12/13 10:29:59;;;;;;;13.05;5.47;;;;;;;;;;5010335;28;20149;-82
2022/12/13 10:32:25;;;;;;;9.80;4.18;;;;;;;;;;5026401;28;20029;-85
2022/12/13 10:34:54;;;;;;;10.07;4.38;;;;;;;;;;5025298;28;20498;-82
2022/12/13 10:37:22;;;;;;;16.65;6.20;;;;;;;;;;5025087;28;20068;-81
2022/12/13 10:39:48;;;;;;;12.65;6.03;;;;;;;;;;5024717;28;20060;-82
2022/12/13 10:42:16;;;;;;;9.00;4.43;;;;;;;;;;5008961;28;20041;-83
2022/12/13 10:44:42;;;;;;;8.57;4.20;;;;;;;;;;5007812;28;20061;-82
2022/12/13 10:47:19;;;;;;;10.45;4.57;;;;;;;;;;5026418;28;20030;-81
2022/12/13 10:49:54;;;;;;;8.73;4.18;;;;;;;;;;5026355;28;20052;-83
2022/12/13 10:52:26;;;;;;;8.90;4.68;;;;;;;;;;5026181;28;20034;-82
2022/12/13 10:54:52;;;;;;;8.40;4.00;;;;;;;;;;5007645;28;20045;-82
2022/12/13 10:57:18;;;;;;;7.80;4.05;;;;;;;;;;5025513;28;20030;-82
2022/12/13 10:59:47;;;;;;;10.00;4.55;;;;;;;;;;5009252;28;20410;-82
2022/12/13 11:02:35;;;;;;;11.63;4.32;;;;;;;;;;5024468;28;20088;-81
2022/12/13 11:05:23;;;;;;;10.30;3.72;;;;;;;;;;5008359;28;20087;-82
2022/12/13 11:07:50;;;;;;;8.25;3.88;;;;;;;;;;5025232;28;20064;-83
2022/12/13 11:10:15;;;;;;;9.10;3.00;;;;;;;;;;5025029;28;20080;-82
2022/12/13 11:12:41;;;;;;;8.63;3.85;;;;;;;;;;5007954;28;20099;-83
2022/12/13 11:15:15;;;;;;;16.17;6.80;;;;;;;;;;5024523;28;20069;-82
2022/12/13 11:17:54;;;;;;;9.73;4.50;;;;;;;;;;5007299;28;20045;-82
2022/12/13 11:20:26;;;;;;;9.55;4.50;;;;;;;;;;5025200;28;20061;-82
2022/12/13 11:23:01;;;;;;;13.27;5.15;;;;;;;;;;5025502;28;20064;-82
2022/12/13 11:25:40;;;;;;;12.80;5.68;;;;;;;;;;5020221;28;20034;-82
2022/12/13 11:28:22;;;;;;;18.88;6.80;;;;;;;;;;5003896;28;20038;-83
2022/12/13 11:30:54;;;;;;;18.55;7.88;;;;;;;;;;5019484;28;20084;-83
2022/12/13 11:33:55;;;;;;;14.95;7.30;;;;;;;;;;5021003;28;20061;-83
2022/12/13 11:36:51;;;;;;;14.07;6.97;;;;;;;;;;4942288;29;20074;-83
2022/12/13 11:39:27;;;;;;;13.82;6.70;;;;;;;;;;5021606;28;20026;-83
2022/12/13 11:41:59;;;;;;;18.73;7.63;;;;;;;;;;5022739;28;20088;-83
2022/12/13 11:44:28;;;;;;;19.70;7.63;;;;;;;;;;5024795;28;20112;-82
2022/12/13 11:46:58;;;;;;;19.13;7.85;;;;;;;;;;5025858;28;20033;-82
2022/12/13 11:49:39;;;;;;;15.90;7.25;;;;;;;;;;5008402;28;20018;-83
2022/12/13 11:52:10;;;;;;;14.10;6.70;;;;;;;;;;5025724;28;20044;-83
2022/12/13 11:54:57;;;;;;;19.35;7.55;;;;;;;;;;5023513;28;20045;-83
2022/12/13 11:57:46;;;;;;;17.40;7.10;;;;;;;;;;5023795;28;20038;-82
2022/12/13 12:00:17;;;;;;;30.70;9.50;;;;;;;;;;5009931;28;20045;-83
2022/12/13 12:02:48;;;;;;;21.40;7.80;;;;;;;;;;5020901;28;20101;-83
2022/12/13 12:05:31;;;;;;;12.63;5.40;;;;;;;;;;5021864;28;20034;-80
2022/12/13 12:08:04;;;;;;;;;;;;;;;;;;5022817;28;20117;-83
2022/12/13 12:10:37;;;;;;;15.05;4.80;;;;;;;;;;5020636;28;20011;-84
2022/12/13 12:13:14;;;;;;;12.30;5.13;;;;;;;;;;5022247;28;20044;-83
2022/12/13 12:15:46;;;;;;;14.85;5.28;;;;;;;;;;5005580;28;20034;-83
2022/12/13 12:18:15;;;;;;;6.93;3.30;;;;;;;;;;5004670;28;20038;-84
2022/12/13 12:20:47;;;;;;;9.15;3.92;;;;;;;;;;5021203;28;20030;-84
2022/12/13 12:23:28;;;;;;;20.80;6.68;;;;;;;;;;5022576;28;20119;-82
2022/12/13 12:26:00;;;;;;;7.60;3.35;;;;;;;;;;5021893;28;20176;-82
2022/12/13 12:28:46;;;;;;;16.00;5.40;;;;;;;;;;5005234;28;20096;-83
2022/12/13 12:31:14;;;;;;;10.13;4.05;;;;;;;;;;5022536;28;20072;-84
2022/12/13 12:33:58;;;;;;;6.55;3.60;;;;;;;;;;5023745;28;20479;-84
2022/12/13 12:36:53;;;;;;;13.98;5.53;;;;;;;;;;5021079;28;20509;-83
2022/12/13 12:39:52;;;;;;;30.08;9.88;;;;;;;;;;5021959;28;20042;-84
2022/12/13 12:42:30;;;;;;;22.05;9.27;;;;;;;;;;5022307;28;20075;-83
2022/12/13 12:44:58;;;;;;;14.27;6.20;;;;;;;;;;5020811;28;20066;-83
2022/12/13 12:48:15;;;;;;;9.35;4.30;;;;;;;;;;5022595;28;20109;-84
2022/12/13 12:50:55;;;;;;;8.02;4.18;;;;;;;;;;5000960;28;20050;-84
2022/12/13 12:53:45;;;;;;;11.95;4.25;;;;;;;;;;5023005;28;20101;-84
2022/12/13 12:56:20;;;;;;;9.45;4.53;;;;;;;;;;5022566;28;20384;-84
2022/12/13 12:59:01;;;;;;;11.93;4.70;;;;;;;;;;5023337;28;20038;-84
2022/12/13 13:01:39;;;;;;;8.73;4.57;;;;;;;;;;5023212;28;20034;-83
2022/12/13 13:04:08;;;;;;;13.77;4.88;;;;;;;;;;5021327;28;20048;-85
2022/12/13 13:06:39;;;;;;;12.45;5.20;;;;;;;;;;5005094;28;20034;-83
2022/12/13 13:09:07;;;;;;;13.50;4.25;;;;;;;;;;5021490;28;20034;-82
2022/12/13 13:11:37;;;;;;;10.82;4.32;;;;;;;;;;5022499;28;20079;-83
2022/12/13 13:14:09;;;;;;;9.82;4.63;;;;;;;;;;5024660;28;20049;-84
2022/12/13 13:16:39;;;;;;;12.25;4.68;;;;;;;;;;5024384;28;20034;-83
2022/12/13 13:19:24;;;;;;;12.32;4.45;;;;;;;;;;5025699;28;20038;-84
2022/12/13 13:21:52;;;;;;;14.52;5.05;;;;;;;;;;5008669;28;20085;-84
2022/12/13 13:24:21;;;;;;;11.73;4.95;;;;;;;;;;5024575;28;20080;-83
2022/12/13 13:27:06;;;;;;;11.05;5.18;;;;;;;;;;5026317;28;20021;-83
2022/12/13 13:29:35;;;;;;;15.90;4.40;;;;;;;;;;5008668;28;20490;-84
2022/12/13 13:32:15;;;;;;;11.63;4.75;;;;;;;;;;5025506;28;20030;-83
2022/12/13 13:34:46;;;;;;;9.57;4.38;;;;;;;;;;5024978;28;20072;-83
2022/12/13 13:37:24;;;;;;;10.35;4.80;;;;;;;;;;5024732;28;20045;-83
2022/12/13 13:40:29;;;;;;;10.40;5.05;;;;;;;;;;5024551;28;20392;-83
2022/12/13 13:43:09;;;;;;;8.55;4.65;;;;;;;;;;5025307;28;20477;-84
2022/12/13 13:45:53;;;;;;;10.27;4.55;;;;;;;;;;5026518;28;20076;-83
2022/12/13 13:48:40;;;;;;;11.43;4.85;;;;;;;;;;5022598;28;20053;-83
2022/12/13 13:51:41;;;;;;;13.25;4.47;;;;;;;;;;5022886;28;20059;-83
2022/12/13 13:54:21;;;;;;;12.23;4.78;;;;;;;;;;5024897;28;20038;-83
2022/12/13 13:56:59;;;;;;;8.80;4.93;;;;;;;;;;5023321;28;20100;-82
2022/12/13 13:59:25;;;;;;;15.23;7.13;;;;;;;;;;5024732;28;20041;-84
2022/12/13 14:02:06;;;;;;;20.73;8.25;;;;;;;;;;5024346;28;20042;-84
2022/12/13 14:05:00;;;;;;;22.20;8.70;;;;;;;;;;5023982;28;20041;-84
2022/12/13 14:08:10;;;;;;;18.90;7.97;;;;;;;;;;5025796;28;20041;-84
2022/12/13 14:11:00;;;;;;;11.38;6.43;;;;;;;;;;5024483;28;20057;-84
2022/12/13 14:13:47;;;;;;;10.85;5.65;;;;;;;;;;5024794;28;20040;-84
2022/12/13 14:16:27;;;;;;;12.57;5.82;;;;;;;;;;5023367;28;20061;-83
2022/12/13 14:19:06;;;;;;;13.55;5.80;;;;;;;;;;5023740;28;20041;-83
2022/12/13 14:21:37;;;;;;;9.93;5.60;;;;;;;;;;5025515;28;20414;-84
2022/12/13 14:24:21;;;;;;;18.40;5.80;;;;;;;;;;5025275;28;20042;-83
2022/12/13 14:27:18;;;;;;;9.15;5.10;;;;;;;;;;5024274;28;20034;-81
2022/12/13 14:29:46;;;;;;;12.57;5.90;;;;;;;;;;5026093;28;20068;-83
2022/12/13 14:32:23;;;;;;;11.68;4.93;;;;;;;;;;5024315;28;20502;-83
2022/12/13 14:34:49;;;;;;;11.50;4.97;;;;;;;;;;5024494;28;20049;-83
2022/12/13 14:37:36;;;;;;;13.68;6.45;;;;;;;;;;5024002;28;20025;-83
2022/12/13 14:40:24;;;;;;;15.80;8.30;;;;;;;;;;5007185;28;20161;-83
2022/12/13 14:42:53;;;;;;;9.93;5.63;;;;;;;;;;5007414;28;20045;-83
2022/12/13 14:45:32;;;;;;;9.55;4.78;;;;;;;;;;5022889;28;20033;-82
2022/12/13 14:48:02;;;;;;;10.80;5.18;;;;;;;;;;5024445;28;20049;-83
2022/12/13 14:50:32;;;;;;;10.75;5.05;;;;;;;;;;5025208;28;20060;-83
2022/12/13 14:52:58;;;;;;;10.60;5.05;;;;;;;;;;5006763;28;20025;-82
2022/12/13 14:55:26;;;;;;;8.25;4.55;;;;;;;;;;5022872;28;20505;-81
2022/12/13 14:57:57;;;;;;;11.05;4.53;;;;;;;;;;5024573;28;20049;-83
2022/12/13 15:00:32;;;;;;;9.68;4.85;;;;;;;;;;5024920;28;20042;-83
2022/12/13 15:03:00;;;;;;;9.13;4.57;;;;;;;;;;5023352;28;20498;-82